TimeCDT,TemperatureF,Dew PointF,Humidity,Sea Level PressureIn,VisibilityMPH,Wind Direction,Wind SpeedMPH,Gust SpeedMPH,PrecipitationIn,Events,Conditions,WindDirDegrees,DateUTC
12:53 AM,86.0,61.0,43,29.75,10.0,South,6.9,-,N/A,,Clear,170,2013-09-01 05:53:00
1:53 AM,84.9,61.0,44,29.75,10.0,South,3.5,-,N/A,,Clear,190,2013-09-01 06:53:00
2:53 AM,84.9,63.0,48,29.76,10.0,SSW,4.6,-,N/A,,Clear,200,2013-09-01 07:53:00
3:53 AM,84.0,63.0,49,29.77,10.0,SSW,4.6,-,N/A,,Clear,200,2013-09-01 08:53:00
4:53 AM,82.0,64.0,54,29.77,10.0,Variable,4.6,-,N/A,,Clear,0,2013-09-01 09:53:00
5:53 AM,81.0,64.0,56,29.77,10.0,Calm,Calm,-,N/A,,Clear,0,2013-09-01 10:53:00
6:53 AM,79.0,64.9,62,29.78,10.0,SSW,3.5,-,N/A,,Clear,200,2013-09-01 11:53:00
7:53 AM,82.0,64.9,56,29.80,10.0,SSW,3.5,-,N/A,,Clear,200,2013-09-01 12:53:00
8:53 AM,86.0,64.9,49,29.81,10.0,SW,10.4,-,N/A,,Clear,220,2013-09-01 13:53:00
9:53 AM,91.0,64.0,41,29.83,10.0,SW,8.1,-,N/A,,Scattered Clouds,230,2013-09-01 14:53:00
10:53 AM,93.9,63.0,36,29.82,10.0,WSW,6.9,-,N/A,,Partly Cloudy,240,2013-09-01 15:53:00
11:53 AM,98.1,63.0,31,29.82,10.0,Variable,4.6,-,N/A,,Clear,0,2013-09-01 16:53:00
12:53 PM,100.0,61.0,28,29.81,10.0,Calm,Calm,-,N/A,,Scattered Clouds,0,2013-09-01 17:53:00
1:53 PM,104.0,60.1,24,29.78,10.0,South,8.1,-,N/A,,Scattered Clouds,170,2013-09-01 18:53:00
2:53 PM,104.0,59.0,23,29.76,10.0,West,4.6,-,N/A,,Scattered Clouds,260,2013-09-01 19:53:00
3:53 PM,105.1,59.0,22,29.73,10.0,ESE,13.8,17.3,N/A,,Scattered Clouds,120,2013-09-01 20:53:00
4:53 PM,102.9,57.9,23,29.71,10.0,ESE,10.4,-,N/A,,Partly Cloudy,120,2013-09-01 21:53:00
5:53 PM,100.9,57.9,24,29.71,10.0,South,5.8,-,N/A,,Partly Cloudy,170,2013-09-01 22:53:00
6:53 PM,99.0,57.9,25,29.73,10.0,ESE,8.1,-,N/A,,Partly Cloudy,120,2013-09-01 23:53:00
7:53 PM,97.0,60.1,29,29.73,10.0,SE,5.8,-,N/A,,Partly Cloudy,140,2013-09-02 00:53:00
8:53 PM,93.9,60.1,32,29.74,10.0,SE,3.5,-,N/A,,Partly Cloudy,130,2013-09-02 01:53:00
9:53 PM,93.0,62.1,36,29.77,10.0,SE,8.1,-,N/A,,Partly Cloudy,130,2013-09-02 02:53:00
10:53 PM,91.4,62.6,38,29.80,10.0,North,4.6,-,N/A,,Scattered Clouds,10,2013-09-02 03:53:00
11:04 PM,91.4,64.4,41,29.87,10.0,NE,15.0,-,0.00,Rain-Thunderstorm,Light Thunderstorms and Rain,40,2013-09-02 04:04:00
11:53 PM,77.0,73.0,88,29.82,8.0,SW,8.1,-,0.27,Rain-Thunderstorm,Light Thunderstorms and Rain,230,2013-09-02 04:53:00